createdAt,value
2018-04-17T00:01:49.797Z,97317.86
2018-04-17T00:04:15.662Z,97319.46
2018-04-17T00:06:41.580Z,97316.52
2018-04-17T00:09:07.453Z,97326.27
2018-04-17T00:11:33.316Z,97324.95
2018-04-17T00:13:59.178Z,97329.84
2018-04-17T00:16:25.061Z,97329.43
2018-04-17T00:18:50.929Z,97336.45
2018-04-17T00:21:16.836Z,97332.10
2018-04-17T00:23:42.702Z,97335.25
2018-04-17T00:26:08.594Z,97328.33
2018-04-17T00:28:34.508Z,97329.02
2018-04-17T00:31:00.392Z,97334.98
2018-04-17T00:33:26.294Z,97332.51
2018-04-17T00:35:52.161Z,97332.67
2018-04-17T00:38:18.073Z,97325.67
2018-04-17T00:40:43.952Z,97335.96
2018-04-17T00:43:09.843Z,97336.33
2018-04-17T00:45:35.724Z,97337.30
2018-04-17T00:48:01.592Z,97343.27
2018-04-17T00:50:27.507Z,97340.64
2018-04-17T00:52:53.388Z,97344.86
2018-04-17T00:55:19.269Z,97347.83
2018-04-17T00:57:45.125Z,97351.28
2018-04-17T01:00:11.066Z,97352.06
2018-04-17T01:02:36.922Z,97349.36
2018-04-17T01:05:03.908Z,97355.65
2018-04-17T01:07:29.766Z,97351.17
2018-04-17T01:09:55.629Z,97350.88
2018-04-17T01:12:21.498Z,97350.04
2018-04-17T01:14:47.357Z,97353.01
2018-04-17T01:17:13.232Z,97352.86
2018-04-17T01:19:39.089Z,97363.28
2018-04-17T01:22:04.997Z,97362.00
2018-04-17T01:24:30.862Z,97357.61
2018-04-17T01:26:56.743Z,97359.05
2018-04-17T01:29:22.606Z,97361.19
2018-04-17T01:31:48.481Z,97367.36
2018-04-17T01:34:14.345Z,97372.89
2018-04-17T01:36:40.487Z,97374.66
2018-04-17T01:39:06.359Z,97379.47
2018-04-17T01:41:32.232Z,97382.13
2018-04-17T01:43:58.109Z,97387.88
2018-04-17T01:46:23.992Z,97378.48
2018-04-17T01:48:49.861Z,97382.97
2018-04-17T01:51:15.698Z,97380.03
2018-04-17T01:53:41.582Z,97390.25
2018-04-17T01:56:07.428Z,97393.67
2018-04-17T01:58:33.292Z,97391.40
2018-04-17T02:00:59.157Z,97397.22
2018-04-17T02:03:25.054Z,97399.88
2018-04-17T02:05:50.953Z,97398.92
2018-04-17T02:08:16.818Z,97404.31
2018-04-17T02:10:42.806Z,97405.01
2018-04-17T02:13:08.680Z,97404.75
2018-04-17T02:15:34.557Z,97409.11
2018-04-17T02:18:00.444Z,97408.27
2018-04-17T02:20:26.341Z,97414.81
2018-04-17T02:22:52.197Z,97411.60
2018-04-17T02:25:18.101Z,97411.50
2018-04-17T02:27:43.972Z,97409.99
2018-04-17T02:30:09.833Z,97418.73
2018-04-17T02:32:35.712Z,97423.32
2018-04-17T02:35:01.570Z,97431.06
2018-04-17T02:37:27.482Z,97431.03
2018-04-17T02:39:53.399Z,97436.31
2018-04-17T02:42:19.245Z,97436.16
2018-04-17T02:44:45.102Z,97431.48
2018-04-17T02:47:10.987Z,97438.79
2018-04-17T02:49:36.827Z,97439.42
2018-04-17T02:52:02.700Z,97448.13
2018-04-17T02:54:28.557Z,97445.94
2018-04-17T02:56:54.422Z,97441.47
2018-04-17T02:59:20.283Z,97452.20
2018-04-17T03:01:46.221Z,97451.20
2018-04-17T03:04:12.101Z,97453.34
2018-04-17T03:06:38.295Z,97448.66
2018-04-17T03:09:04.217Z,97457.98
2018-04-17T03:11:30.085Z,97454.88
2018-04-17T03:13:55.987Z,97454.32
2018-04-17T03:16:21.849Z,97457.34
2018-04-17T03:18:47.717Z,97453.25
2018-04-17T03:21:13.594Z,97459.60
2018-04-17T03:23:39.476Z,97465.96
2018-04-17T03:26:05.372Z,97471.56
2018-04-17T03:28:31.229Z,97477.45
2018-04-17T03:30:57.090Z,97470.96
2018-04-17T03:33:22.979Z,97472.55
2018-04-17T03:35:48.874Z,97480.38
2018-04-17T03:38:14.765Z,97484.27
2018-04-17T03:40:40.651Z,97478.99
2018-04-17T03:43:06.570Z,97477.20
2018-04-17T03:45:32.478Z,97478.13
2018-04-17T03:47:58.373Z,97482.39
2018-04-17T03:50:24.278Z,97480.89
2018-04-17T03:52:50.217Z,97481.72
2018-04-17T03:55:16.107Z,97488.09
2018-04-17T03:57:42.009Z,97492.94
2018-04-17T04:00:07.897Z,97496.77
2018-04-17T04:02:33.778Z,97501.43
2018-04-17T04:04:59.655Z,97509.30
2018-04-17T04:07:25.582Z,97502.28
2018-04-17T04:09:51.445Z,97497.84
2018-04-17T04:12:17.327Z,97501.09
2018-04-17T04:14:43.349Z,97507.41
2018-04-17T04:17:21.681Z,97511.45
2018-04-17T04:19:59.796Z,97506.56
2018-04-17T04:22:37.852Z,97520.50
2018-04-17T04:28:05.358Z,97524.92
2018-04-17T04:30:31.239Z,97524.94
2018-04-17T04:32:57.122Z,97529.63
2018-04-17T04:35:22.985Z,97535.42
2018-04-17T04:37:48.859Z,97523.37
2018-04-17T04:40:14.748Z,97526.12
2018-04-17T04:42:40.593Z,97535.61
2018-04-17T04:45:06.491Z,97544.34
2018-04-17T04:47:32.345Z,97543.97
2018-04-17T04:49:58.273Z,97536.58
2018-04-17T04:52:24.177Z,97554.42
2018-04-17T04:54:50.041Z,97557.89
2018-04-17T04:57:15.920Z,97553.14
2018-04-17T04:59:41.777Z,97562.78
2018-04-17T05:02:07.657Z,97559.21
2018-04-17T05:04:33.515Z,97567.47
2018-04-17T05:06:59.413Z,97568.66
2018-04-17T05:09:25.237Z,97573.64
2018-04-17T05:11:51.088Z,97580.36
2018-04-17T05:14:16.955Z,97585.23
2018-04-17T05:16:42.967Z,97587.09
2018-04-17T05:19:08.813Z,97584.41
2018-04-17T05:21:34.689Z,97582.22
2018-04-17T05:24:00.562Z,97587.35
2018-04-17T05:26:26.409Z,97587.88
2018-04-17T05:28:52.280Z,97592.48
2018-04-17T05:31:18.187Z,97600.17
2018-04-17T05:33:44.065Z,97608.13
2018-04-17T05:36:09.945Z,97609.08
2018-04-17T05:38:35.864Z,97618.41
2018-04-17T05:41:01.725Z,97618.98
2018-04-17T05:43:27.634Z,97622.11
2018-04-17T05:45:53.561Z,97625.11
2018-04-17T05:48:19.452Z,97623.52
2018-04-17T05:50:45.357Z,97634.09
2018-04-17T05:53:11.230Z,97629.68
2018-04-17T05:55:37.141Z,97631.81
2018-04-17T05:58:02.991Z,97630.07
2018-04-17T06:00:28.893Z,97624.37
2018-04-17T06:02:54.745Z,97649.13
2018-04-17T06:05:20.633Z,97647.81
2018-04-17T06:07:46.500Z,97647.03
2018-04-17T06:10:12.370Z,97645.70
2018-04-17T06:12:38.240Z,97653.61
2018-04-17T06:15:04.178Z,97665.78
2018-04-17T06:17:30.068Z,97653.80
2018-04-17T06:19:55.942Z,97652.70
2018-04-17T06:22:21.818Z,97654.34
2018-04-17T06:24:47.714Z,97657.46
2018-04-17T06:27:13.601Z,97654.02
2018-04-17T06:29:39.498Z,97655.69
2018-04-17T06:32:05.356Z,97660.33
2018-04-17T06:34:31.243Z,97662.81
2018-04-17T06:36:57.090Z,97666.05
2018-04-17T06:39:22.951Z,97672.44
2018-04-17T06:41:48.937Z,97680.45
2018-04-17T06:44:14.759Z,97680.45
2018-04-17T06:46:40.614Z,97686.27
2018-04-17T06:49:06.470Z,97681.59
2018-04-17T06:51:32.338Z,97693.92
2018-04-17T06:53:58.214Z,97700.09
2018-04-17T06:56:24.092Z,97698.06
2018-04-17T06:58:49.959Z,97694.50
2018-04-17T07:01:15.790Z,97704.02
2018-04-17T07:03:41.681Z,97703.61
2018-04-17T07:06:07.545Z,97711.09
2018-04-17T07:08:33.429Z,97718.06
2018-04-17T07:10:59.308Z,97716.16
2018-04-17T07:13:25.181Z,97717.34
2018-04-17T07:15:51.040Z,97723.92
2018-04-17T07:18:16.990Z,97735.56
2018-04-17T07:20:42.833Z,97732.77
2018-04-17T07:23:08.712Z,97743.22
2018-04-17T07:25:34.573Z,97749.19
2018-04-17T07:28:00.406Z,97742.16
2018-04-17T07:30:26.294Z,97741.72
2018-04-17T07:32:52.181Z,97742.61
2018-04-17T07:35:18.073Z,97743.47
2018-04-17T07:37:43.962Z,97758.35
2018-04-17T07:40:09.825Z,97767.41
2018-04-17T07:42:35.695Z,97769.75
2018-04-17T07:45:01.591Z,97767.70
2018-04-17T07:47:27.489Z,97774.40
2018-04-17T07:49:53.378Z,97781.31
2018-04-17T07:52:19.242Z,97780.66
2018-04-17T07:54:45.089Z,97782.30
2018-04-17T07:57:10.954Z,97782.11
2018-04-17T07:59:36.790Z,97776.43
2018-04-17T08:02:02.653Z,97782.45
2018-04-17T08:04:28.509Z,97784.45
2018-04-17T08:06:54.390Z,97782.89
2018-04-17T08:09:20.261Z,97789.79
2018-04-17T08:11:46.121Z,97788.36
2018-04-17T08:14:11.995Z,97790.16
2018-04-17T08:16:37.886Z,97794.80
2018-04-17T08:19:03.785Z,97799.09
2018-04-17T08:21:29.671Z,97805.56
2018-04-17T08:23:55.545Z,97808.81
2018-04-17T08:26:21.420Z,97809.28
2018-04-17T08:28:47.266Z,97813.69
2018-04-17T08:31:13.137Z,97818.43
2018-04-17T08:33:39.042Z,97816.50
2018-04-17T08:36:04.939Z,97814.31
2018-04-17T08:38:30.782Z,97814.37
2018-04-17T08:40:56.653Z,97813.44
2018-04-17T08:43:22.517Z,97807.47
2018-04-17T08:45:48.415Z,97812.22
2018-04-17T08:48:14.280Z,97810.50
2018-04-17T08:50:40.138Z,97817.16
2018-04-17T08:53:06.016Z,97821.46
2018-04-17T08:55:31.918Z,97813.80
2018-04-17T08:57:57.804Z,97826.83
2018-04-17T09:00:23.633Z,97822.93
2018-04-17T09:02:49.524Z,97827.88
2018-04-17T09:05:15.446Z,97822.03
2018-04-17T09:07:48.302Z,97827.76
2018-04-17T09:10:14.173Z,97829.80
2018-04-17T09:12:40.096Z,97822.42
2018-04-17T09:15:05.962Z,97823.09
2018-04-17T09:17:31.853Z,97820.35
2018-04-17T09:19:57.753Z,97815.56
2018-04-17T09:22:23.617Z,97811.42
2018-04-17T09:24:49.476Z,97811.31
2018-04-17T09:27:15.360Z,97813.66
2018-04-17T09:29:41.253Z,97814.13
2018-04-17T09:32:07.125Z,97804.11
2018-04-17T09:34:33.018Z,97815.20
2018-04-17T09:36:58.898Z,97815.66
2018-04-17T09:39:24.764Z,97810.94
2018-04-17T09:41:50.664Z,97809.94
2018-04-17T09:44:16.526Z,97809.48
2018-04-17T09:46:42.461Z,97811.73
2018-04-17T09:49:08.381Z,97808.90
2018-04-17T09:51:34.210Z,97802.52
2018-04-17T09:54:00.080Z,97813.58
2018-04-17T09:56:25.964Z,97803.17
2018-04-17T09:58:51.813Z,97803.78
2018-04-17T10:01:17.698Z,97796.60
2018-04-17T10:03:43.557Z,97800.15
2018-04-17T10:06:09.425Z,97801.22
2018-04-17T10:08:35.289Z,97801.41
2018-04-17T10:11:01.143Z,97801.48
2018-04-17T10:13:27.026Z,97803.28
2018-04-17T10:15:52.861Z,97794.72
2018-04-17T10:18:18.740Z,97793.06
2018-04-17T10:20:44.734Z,97799.28
2018-04-17T10:23:10.578Z,97805.98
2018-04-17T10:25:36.453Z,97798.84
2018-04-17T10:28:02.317Z,97803.91
2018-04-17T10:30:28.166Z,97801.42
2018-04-17T10:32:53.994Z,97808.37
2018-04-17T10:35:19.834Z,97799.45
2018-04-17T10:37:45.834Z,97802.20
2018-04-17T10:40:11.722Z,97794.79
2018-04-17T10:42:37.760Z,97801.11
2018-04-17T10:45:04.600Z,97799.89
2018-04-17T10:47:30.503Z,97796.97
2018-04-17T10:49:56.377Z,97796.08
2018-04-17T10:52:22.273Z,97790.60
2018-04-17T10:54:48.118Z,97793.44
2018-04-17T10:57:14.033Z,97794.08
2018-04-17T10:59:39.878Z,97791.67
2018-04-17T11:02:05.748Z,97787.05
2018-04-17T11:04:31.612Z,97788.48
2018-04-17T11:06:57.495Z,97791.96
2018-04-17T11:09:23.386Z,97789.20
2018-04-17T11:11:49.284Z,97779.34
2018-04-17T11:14:15.142Z,97781.55
2018-04-17T11:16:40.968Z,97783.39
2018-04-17T11:19:06.834Z,97787.58
2018-04-17T11:21:32.682Z,97790.72
2018-04-17T11:23:58.550Z,97788.76
2018-04-17T11:26:24.424Z,97787.56
2018-04-17T11:28:50.292Z,97783.30
2018-04-17T11:31:16.141Z,97787.92
2018-04-17T11:33:42.037Z,97791.73
2018-04-17T11:36:07.940Z,97795.19
2018-04-17T11:38:33.806Z,97795.22
2018-04-17T11:40:59.682Z,97791.41
2018-04-17T11:43:25.533Z,97787.48
2018-04-17T11:45:51.436Z,97777.06
2018-04-17T11:48:17.293Z,97778.91
2018-04-17T11:50:43.162Z,97772.99
2018-04-17T11:53:09.036Z,97776.06
2018-04-17T11:55:34.901Z,97787.12
2018-04-17T11:58:00.757Z,97784.48
2018-04-17T12:00:26.816Z,97787.00
2018-04-17T12:02:52.738Z,97780.08
2018-04-17T12:05:18.603Z,97792.14
2018-04-17T12:07:44.508Z,97788.34
2018-04-17T12:10:10.406Z,97789.00
2018-04-17T12:12:36.281Z,97782.36
2018-04-17T12:15:02.161Z,97783.79
2018-04-17T12:17:28.002Z,97779.08
2018-04-17T12:19:53.877Z,97776.75
2018-04-17T12:22:19.713Z,97781.11
2018-04-17T12:24:45.679Z,97770.23
2018-04-17T12:27:11.538Z,97775.81
2018-04-17T12:29:37.392Z,97774.78
2018-04-17T12:32:03.301Z,97767.34
2018-04-17T12:34:29.201Z,97775.48
2018-04-17T12:39:27.562Z,97771.85
2018-04-17T12:41:53.447Z,97768.00
2018-04-17T12:44:19.306Z,97771.88
2018-04-17T12:46:45.175Z,97772.57
2018-04-17T12:49:11.025Z,97778.00
2018-04-17T12:51:36.873Z,97770.03
2018-04-17T12:54:02.751Z,97777.23
2018-04-17T12:56:29.645Z,97779.02
2018-04-17T12:58:55.545Z,97781.29
2018-04-17T13:01:21.409Z,97773.37
2018-04-17T13:03:47.233Z,97778.52
2018-04-17T13:06:13.144Z,97779.16
2018-04-17T13:08:39.028Z,97772.19
2018-04-17T13:11:04.919Z,97782.67
2018-04-17T13:13:30.784Z,97785.59
2018-04-17T13:15:56.674Z,97784.58
2018-04-17T13:18:22.564Z,97784.60
2018-04-17T13:20:48.456Z,97783.37
2018-04-17T13:23:14.344Z,97778.09
2018-04-17T13:25:40.232Z,97780.25
2018-04-17T13:28:06.117Z,97779.90
2018-04-17T13:30:31.964Z,97786.71
2018-04-17T13:32:57.817Z,97783.72
2018-04-17T13:35:23.698Z,97777.78
2018-04-17T13:37:49.562Z,97784.63
2018-04-17T13:40:15.460Z,97778.35
2018-04-17T13:42:41.328Z,97781.06
2018-04-17T13:45:07.185Z,97774.05
2018-04-17T13:47:33.041Z,97773.23
2018-04-17T13:49:58.889Z,97766.59
2018-04-17T13:52:24.745Z,97771.61
2018-04-17T13:54:50.610Z,97772.02
2018-04-17T13:57:16.450Z,97767.42
2018-04-17T13:59:42.336Z,97776.82
2018-04-17T14:02:08.204Z,97770.78
2018-04-17T14:04:34.081Z,97773.84
2018-04-17T14:06:59.966Z,97775.30
2018-04-17T14:09:25.865Z,97772.59
2018-04-17T14:11:51.716Z,97768.18
2018-04-17T14:14:17.561Z,97770.70
2018-04-17T14:16:43.436Z,97764.49
2018-04-17T14:19:09.329Z,97768.75
2018-04-17T14:21:35.216Z,97759.46
2018-04-17T14:24:01.062Z,97766.39
2018-04-17T14:26:26.932Z,97761.14
2018-04-17T14:28:52.809Z,97766.24
2018-04-17T14:31:18.687Z,97757.88
2018-04-17T14:33:44.577Z,97760.11
2018-04-17T14:36:10.430Z,97762.11
2018-04-17T14:38:36.352Z,97768.02
2018-04-17T14:41:02.223Z,97771.62
2018-04-17T14:43:28.237Z,97772.70
2018-04-17T14:45:54.030Z,97771.58
2018-04-17T14:48:19.919Z,97771.15
2018-04-17T14:50:45.794Z,97779.16
2018-04-17T14:53:11.901Z,97775.73
2018-04-17T14:55:37.789Z,97775.17
2018-04-17T14:58:03.674Z,97782.47
2018-04-17T15:00:29.517Z,97780.27
2018-04-17T15:02:56.172Z,97783.91
2018-04-17T15:05:22.012Z,97780.52
2018-04-17T15:07:48.107Z,97778.55
2018-04-17T15:10:13.958Z,97783.52
2018-04-17T15:12:39.815Z,97774.69
2018-04-17T15:15:05.704Z,97776.43
2018-04-17T15:17:31.613Z,97774.84
2018-04-17T15:19:57.457Z,97779.51
2018-04-17T15:22:23.440Z,97779.05
2018-04-17T15:24:49.302Z,97778.44
2018-04-17T15:27:15.160Z,97776.34
2018-04-17T15:29:41.069Z,97768.87
2018-04-17T15:32:06.982Z,97772.84
2018-04-17T15:34:32.877Z,97766.63
2018-04-17T15:36:58.759Z,97770.55
2018-04-17T15:39:24.672Z,97777.89
2018-04-17T15:41:50.569Z,97773.53
2018-04-17T15:44:16.434Z,97778.58
2018-04-17T15:46:42.313Z,97779.93
2018-04-17T15:49:08.267Z,97775.86
2018-04-17T15:51:34.198Z,97774.63
2018-04-17T15:54:00.046Z,97774.44
2018-04-17T15:56:25.931Z,97776.92
2018-04-17T15:58:51.836Z,97782.25
2018-04-17T16:01:17.692Z,97779.23
2018-04-17T16:03:43.629Z,97779.91
2018-04-17T16:06:09.466Z,97777.06
2018-04-17T16:08:35.356Z,97783.87
2018-04-17T16:11:01.200Z,97782.79
2018-04-17T16:13:27.131Z,97784.56
2018-04-17T16:15:52.993Z,97787.05
2018-04-17T16:18:18.894Z,97783.25
2018-04-17T16:20:44.753Z,97790.87
2018-04-17T16:23:10.605Z,97792.36
2018-04-17T16:25:36.498Z,97783.55
2018-04-17T16:28:02.398Z,97792.61
2018-04-17T16:30:28.335Z,97787.35
2018-04-17T16:32:54.186Z,97789.45
2018-04-17T16:35:20.069Z,97790.73
2018-04-17T16:37:45.965Z,97792.79
2018-04-17T16:40:11.864Z,97799.59
2018-04-17T16:42:38.081Z,97798.66
2018-04-17T16:45:03.990Z,97798.74
2018-04-17T16:47:29.863Z,97803.86
2018-04-17T16:49:55.732Z,97800.80
2018-04-17T16:52:21.633Z,97799.23
2018-04-17T16:54:47.546Z,97803.05
2018-04-17T16:57:13.390Z,97807.83
2018-04-17T16:59:39.253Z,97805.35
2018-04-17T17:02:05.115Z,97803.96
2018-04-17T17:04:31.035Z,97807.16
2018-04-17T17:06:56.924Z,97809.03
2018-04-17T17:09:22.810Z,97810.34
2018-04-17T17:11:48.680Z,97820.38
2018-04-17T17:14:14.527Z,97811.72
2018-04-17T17:16:40.402Z,97824.05
2018-04-17T17:19:06.286Z,97818.46
2018-04-17T17:21:32.192Z,97823.51
2018-04-17T17:23:58.024Z,97820.32
2018-04-17T17:26:24.075Z,97827.80
2018-04-17T17:28:49.908Z,97827.44
2018-04-17T17:31:15.785Z,97831.60
2018-04-17T17:33:41.677Z,97835.64
2018-04-17T17:36:07.556Z,97834.11
2018-04-17T17:38:33.461Z,97834.18
2018-04-17T17:40:59.337Z,97845.75
2018-04-17T17:43:25.214Z,97848.12
2018-04-17T17:45:51.094Z,97856.73
2018-04-17T17:48:16.959Z,97857.44
2018-04-17T17:50:42.865Z,97861.67
2018-04-17T17:53:08.802Z,97865.84
2018-04-17T17:55:34.695Z,97877.41
2018-04-17T17:58:00.580Z,97872.39
2018-04-17T18:00:26.465Z,97877.86
2018-04-17T18:02:52.365Z,97879.23
2018-04-17T18:05:18.286Z,97876.67
2018-04-17T18:07:44.171Z,97883.75
2018-04-17T18:10:10.017Z,97887.33
2018-04-17T18:12:35.908Z,97885.63
2018-04-17T18:15:01.799Z,97898.73
2018-04-17T18:17:27.680Z,97893.46
2018-04-17T18:19:53.557Z,97899.48
2018-04-17T18:22:19.425Z,97904.18
2018-04-17T18:24:45.304Z,97903.80
2018-04-17T18:27:11.173Z,97909.98
2018-04-17T18:29:37.073Z,97917.20
2018-04-17T18:32:03.001Z,97922.73
2018-04-17T18:34:28.849Z,97925.34
2018-04-17T18:36:54.752Z,97932.15
2018-04-17T18:39:20.641Z,97931.77
2018-04-17T18:41:46.546Z,97941.94
2018-04-17T18:44:12.429Z,97942.59
2018-04-17T18:46:38.280Z,97944.25
2018-04-17T18:49:04.133Z,97953.82
2018-04-17T18:51:30.005Z,97959.81
2018-04-17T18:53:55.877Z,97965.09
2018-04-17T18:56:21.746Z,97965.66
2018-04-17T18:58:47.694Z,97975.78
2018-04-17T19:01:13.558Z,97970.80
2018-04-17T19:03:39.425Z,97980.71
2018-04-17T19:06:05.334Z,97985.43
2018-04-17T19:08:31.216Z,97984.27
2018-04-17T19:10:57.098Z,97992.41
2018-04-17T19:13:22.953Z,97998.72
2018-04-17T19:15:48.840Z,98003.03
2018-04-17T19:18:14.718Z,98008.14
2018-04-17T19:20:40.598Z,98010.17
2018-04-17T19:23:06.458Z,98005.14
2018-04-17T19:25:32.360Z,98011.42
2018-04-17T19:27:58.225Z,98016.83
2018-04-17T19:30:24.089Z,98014.05
2018-04-17T19:32:50.093Z,98018.79
2018-04-17T19:35:16.033Z,98019.29
2018-04-17T19:37:41.893Z,98021.53
2018-04-17T19:40:07.786Z,98030.19
2018-04-17T19:42:33.685Z,98023.23
2018-04-17T19:44:59.686Z,98024.36
2018-04-17T19:47:25.565Z,98029.20
2018-04-17T19:49:51.452Z,98032.49
2018-04-17T19:52:17.341Z,98036.48
2018-04-17T19:54:43.243Z,98034.73
2018-04-17T19:57:09.194Z,98041.25
2018-04-17T19:59:35.005Z,98044.46
2018-04-17T20:02:00.849Z,98048.63
2018-04-17T20:04:26.708Z,98042.03
2018-04-17T20:06:52.574Z,98036.64
2018-04-17T20:09:18.514Z,98041.66
2018-04-17T20:11:44.355Z,98047.13
2018-04-17T20:14:10.323Z,98058.60
2018-04-17T20:16:36.222Z,98059.63
2018-04-17T20:19:02.077Z,98060.27
2018-04-17T20:21:27.939Z,98058.44
2018-04-17T20:23:53.802Z,98057.13
2018-04-17T20:26:19.666Z,98061.70
2018-04-17T20:28:45.552Z,98062.77
2018-04-17T20:31:11.377Z,98067.09
2018-04-17T20:33:37.250Z,98061.00
2018-04-17T20:36:03.151Z,98069.08
2018-04-17T20:38:29.067Z,98067.44
2018-04-17T20:40:54.930Z,98072.87
2018-04-17T20:43:20.844Z,98072.43
2018-04-17T20:45:46.786Z,98079.58
2018-04-17T20:48:12.717Z,98080.12
2018-04-17T20:50:38.676Z,98078.33
2018-04-17T20:53:04.615Z,98069.73
2018-04-17T20:55:30.555Z,98082.41
2018-04-17T20:57:56.458Z,98078.28
2018-04-17T21:00:22.430Z,98079.17
2018-04-17T21:02:48.335Z,98075.44
2018-04-17T21:05:14.196Z,98082.32
2018-04-17T21:07:40.056Z,98082.30
2018-04-17T21:10:05.995Z,98083.38
2018-04-17T21:12:31.893Z,98084.66
2018-04-17T21:14:57.761Z,98084.50
2018-04-17T21:17:23.672Z,98071.61
2018-04-17T21:19:49.568Z,98079.41
2018-04-17T21:22:15.480Z,98084.67
2018-04-17T21:24:41.377Z,98082.08
2018-04-17T21:27:07.281Z,98088.96
2018-04-17T21:29:33.153Z,98090.61
2018-04-17T21:31:59.003Z,98102.23
2018-04-17T21:34:24.889Z,98112.42
2018-04-17T21:36:50.749Z,98117.27
2018-04-17T21:39:16.711Z,98114.44
2018-04-17T21:41:42.588Z,98118.45
2018-04-17T21:44:08.461Z,98116.27
2018-04-17T21:46:34.389Z,98121.42
2018-04-17T21:49:00.269Z,98123.34
2018-04-17T21:51:26.172Z,98126.89
2018-04-17T21:53:52.034Z,98130.78
2018-04-17T21:56:17.921Z,98131.74
2018-04-17T21:58:43.833Z,98132.56
2018-04-17T22:01:09.674Z,98140.14
2018-04-17T22:06:01.280Z,98140.57
2018-04-17T22:08:27.125Z,98139.70
2018-04-17T22:10:53.000Z,98140.39
2018-04-17T22:13:18.874Z,98141.14
2018-04-17T22:15:44.781Z,98142.66
2018-04-17T22:18:10.681Z,98141.09
2018-04-17T22:20:36.626Z,98139.97
2018-04-17T22:23:02.535Z,98132.93
2018-04-17T22:25:28.460Z,98137.02
2018-04-17T22:27:54.320Z,98144.66
2018-04-17T22:30:20.170Z,98148.56
2018-04-17T22:32:46.077Z,98148.81
2018-04-17T22:35:11.955Z,98146.92
2018-04-17T22:37:37.861Z,98147.38
2018-04-17T22:40:03.785Z,98157.50
2018-04-17T22:42:29.728Z,98151.88
2018-04-17T22:44:55.617Z,98153.81
2018-04-17T22:47:21.518Z,98158.81
2018-04-17T22:49:47.445Z,98157.98
2018-04-17T22:52:13.321Z,98160.40
2018-04-17T22:54:39.242Z,98160.97
2018-04-17T22:57:05.140Z,98165.88
2018-04-17T22:59:31.017Z,98167.72
2018-04-17T23:01:56.900Z,98168.64
2018-04-17T23:04:22.778Z,98164.70
2018-04-17T23:06:48.681Z,98171.09
2018-04-17T23:09:14.545Z,98169.83
2018-04-17T23:11:40.483Z,98172.87
2018-04-17T23:14:06.357Z,98174.30
2018-04-17T23:16:32.228Z,98172.19
2018-04-17T23:18:58.102Z,98172.14
2018-04-17T23:21:23.952Z,98178.30
2018-04-17T23:23:49.842Z,98180.37
2018-04-17T23:26:15.702Z,98182.52
2018-04-17T23:28:41.592Z,98181.84
2018-04-17T23:31:07.472Z,98185.86
2018-04-17T23:33:33.313Z,98187.54
2018-04-17T23:35:59.197Z,98186.10
2018-04-17T23:38:25.049Z,98186.45
2018-04-17T23:40:50.957Z,98186.61
2018-04-17T23:43:16.844Z,98191.69
2018-04-17T23:45:42.724Z,98190.11
2018-04-17T23:48:08.609Z,98194.07
2018-04-17T23:50:34.468Z,98196.16
2018-04-17T23:53:00.361Z,98197.41
2018-04-17T23:55:26.205Z,98196.66
2018-04-17T23:57:52.082Z,98196.16
